sensor_id;sensor_type;location;lat;lon;timestamp;P1;durP1;ratioP1;P2;durP2;ratioP2
54201;SDS011;40108;53.152;5.844;2023-02-08T00:02:01;43.95;;;25.38;;
54201;SDS011;40108;53.152;5.844;2023-02-08T00:05:01;40.33;;;24.17;;
54201;SDS011;40108;53.152;5.844;2023-02-08T00:07:44;40.30;;;23.48;;
54201;SDS011;40108;53.152;5.844;2023-02-08T00:10:15;39.65;;;23.30;;
54201;SDS011;40108;53.152;5.844;2023-02-08T00:13:00;40.67;;;24.23;;
54201;SDS011;40108;53.152;5.844;2023-02-08T00:15:51;43.15;;;23.55;;
54201;SDS011;40108;53.152;5.844;2023-02-08T00:18:57;38.00;;;23.15;;
54201;SDS011;40108;53.152;5.844;2023-02-08T00:21:39;43.92;;;23.48;;
54201;SDS011;40108;53.152;5.844;2023-02-08T00:24:35;39.72;;;22.85;;
54201;SDS011;40108;53.152;5.844;2023-02-08T00:27:08;38.63;;;23.52;;
54201;SDS011;40108;53.152;5.844;2023-02-08T00:29:52;37.60;;;22.67;;
54201;SDS011;40108;53.152;5.844;2023-02-08T00:32:21;36.25;;;22.83;;
54201;SDS011;40108;53.152;5.844;2023-02-08T00:41:11;40.15;;;23.55;;
54201;SDS011;40108;53.152;5.844;2023-02-08T00:43:48;39.75;;;22.92;;
54201;SDS011;40108;53.152;5.844;2023-02-08T00:46:26;41.80;;;23.70;;
54201;SDS011;40108;53.152;5.844;2023-02-08T00:49:08;37.95;;;23.25;;
54201;SDS011;40108;53.152;5.844;2023-02-08T00:51:48;41.20;;;22.75;;
54201;SDS011;40108;53.152;5.844;2023-02-08T00:54:35;39.88;;;22.83;;
54201;SDS011;40108;53.152;5.844;2023-02-08T00:57:18;38.05;;;23.00;;
54201;SDS011;40108;53.152;5.844;2023-02-08T00:59:57;37.40;;;23.60;;
54201;SDS011;40108;53.152;5.844;2023-02-08T01:02:44;39.20;;;23.92;;
54201;SDS011;40108;53.152;5.844;2023-02-08T01:05:21;40.78;;;24.25;;
54201;SDS011;40108;53.152;5.844;2023-02-08T01:07:54;44.55;;;25.15;;
54201;SDS011;40108;53.152;5.844;2023-02-08T01:10:36;40.08;;;23.70;;
54201;SDS011;40108;53.152;5.844;2023-02-08T01:13:16;39.20;;;24.30;;
54201;SDS011;40108;53.152;5.844;2023-02-08T01:15:47;35.63;;;22.95;;
54201;SDS011;40108;53.152;5.844;2023-02-08T01:18:27;39.72;;;22.13;;
54201;SDS011;40108;53.152;5.844;2023-02-08T01:21:13;38.95;;;23.80;;
54201;SDS011;40108;53.152;5.844;2023-02-08T01:23:45;42.65;;;23.33;;
54201;SDS011;40108;53.152;5.844;2023-02-08T01:26:16;39.80;;;24.08;;
54201;SDS011;40108;53.152;5.844;2023-02-08T01:28:49;38.28;;;23.27;;
54201;SDS011;40108;53.152;5.844;2023-02-08T01:31:26;36.53;;;22.60;;
54201;SDS011;40108;53.152;5.844;2023-02-08T01:34:04;39.53;;;22.95;;
54201;SDS011;40108;53.152;5.844;2023-02-08T01:36:39;40.63;;;23.77;;
54201;SDS011;40108;53.152;5.844;2023-02-08T01:39:35;34.38;;;22.83;;
54201;SDS011;40108;53.152;5.844;2023-02-08T01:42:26;40.60;;;24.02;;
54201;SDS011;40108;53.152;5.844;2023-02-08T01:47:54;38.78;;;23.58;;
54201;SDS011;40108;53.152;5.844;2023-02-08T01:54:08;36.83;;;21.88;;
54201;SDS011;40108;53.152;5.844;2023-02-08T01:56:38;35.50;;;21.83;;
54201;SDS011;40108;53.152;5.844;2023-02-08T01:59:18;37.70;;;22.98;;
54201;SDS011;40108;53.152;5.844;2023-02-08T02:01:51;35.30;;;21.95;;
54201;SDS011;40108;53.152;5.844;2023-02-08T02:04:29;39.80;;;22.40;;
54201;SDS011;40108;53.152;5.844;2023-02-08T02:06:56;40.53;;;21.25;;
54201;SDS011;40108;53.152;5.844;2023-02-08T02:09:41;36.42;;;22.20;;
54201;SDS011;40108;53.152;5.844;2023-02-08T02:18:21;33.95;;;21.35;;
54201;SDS011;40108;53.152;5.844;2023-02-08T02:21:18;34.63;;;21.30;;
54201;SDS011;40108;53.152;5.844;2023-02-08T02:24:14;36.50;;;21.85;;
54201;SDS011;40108;53.152;5.844;2023-02-08T02:27:06;34.50;;;21.27;;
54201;SDS011;40108;53.152;5.844;2023-02-08T02:36:22;33.75;;;20.67;;
54201;SDS011;40108;53.152;5.844;2023-02-08T02:48:12;32.25;;;21.00;;
54201;SDS011;40108;53.152;5.844;2023-02-08T02:51:26;33.70;;;21.47;;
54201;SDS011;40108;53.152;5.844;2023-02-08T02:56:52;35.33;;;21.83;;
54201;SDS011;40108;53.152;5.844;2023-02-08T03:02:43;36.03;;;21.88;;
54201;SDS011;40108;53.152;5.844;2023-02-08T03:05:22;36.95;;;22.20;;
54201;SDS011;40108;53.152;5.844;2023-02-08T03:17:32;34.13;;;20.17;;
54201;SDS011;40108;53.152;5.844;2023-02-08T03:20:26;32.42;;;21.27;;
54201;SDS011;40108;53.152;5.844;2023-02-08T03:23:30;34.50;;;21.30;;
54201;SDS011;40108;53.152;5.844;2023-02-08T03:26:32;31.63;;;19.53;;
54201;SDS011;40108;53.152;5.844;2023-02-08T03:29:38;32.38;;;21.30;;
54201;SDS011;40108;53.152;5.844;2023-02-08T03:32:18;31.90;;;21.10;;
54201;SDS011;40108;53.152;5.844;2023-02-08T03:37:38;35.80;;;20.88;;
54201;SDS011;40108;53.152;5.844;2023-02-08T03:40:48;34.80;;;21.60;;
54201;SDS011;40108;53.152;5.844;2023-02-08T03:43:29;35.13;;;22.15;;
54201;SDS011;40108;53.152;5.844;2023-02-08T03:46:34;38.75;;;21.50;;
54201;SDS011;40108;53.152;5.844;2023-02-08T03:49:31;32.47;;;21.30;;
54201;SDS011;40108;53.152;5.844;2023-02-08T03:52:10;34.30;;;22.17;;
54201;SDS011;40108;53.152;5.844;2023-02-08T03:55:17;35.95;;;21.98;;
54201;SDS011;40108;53.152;5.844;2023-02-08T03:58:07;33.70;;;21.43;;
54201;SDS011;40108;53.152;5.844;2023-02-08T04:01:29;34.33;;;22.58;;
54201;SDS011;40108;53.152;5.844;2023-02-08T04:04:10;38.72;;;22.52;;
54201;SDS011;40108;53.152;5.844;2023-02-08T04:06:51;32.17;;;21.77;;
54201;SDS011;40108;53.152;5.844;2023-02-08T04:12:28;40.10;;;23.08;;
54201;SDS011;40108;53.152;5.844;2023-02-08T04:15:15;36.15;;;21.63;;
54201;SDS011;40108;53.152;5.844;2023-02-08T04:21:06;32.38;;;22.05;;
54201;SDS011;40108;53.152;5.844;2023-02-08T04:23:35;34.27;;;22.07;;
54201;SDS011;40108;53.152;5.844;2023-02-08T04:26:15;35.47;;;22.87;;
54201;SDS011;40108;53.152;5.844;2023-02-08T04:29:01;33.78;;;21.02;;
54201;SDS011;40108;53.152;5.844;2023-02-08T04:34:19;38.53;;;22.25;;
54201;SDS011;40108;53.152;5.844;2023-02-08T04:40:12;34.90;;;21.85;;
54201;SDS011;40108;53.152;5.844;2023-02-08T04:42:50;34.53;;;21.70;;
54201;SDS011;40108;53.152;5.844;2023-02-08T04:45:19;34.42;;;21.88;;
54201;SDS011;40108;53.152;5.844;2023-02-08T04:48:19;37.38;;;22.88;;
54201;SDS011;40108;53.152;5.844;2023-02-08T04:50:46;35.77;;;23.03;;
54201;SDS011;40108;53.152;5.844;2023-02-08T04:53:29;34.83;;;23.03;;
54201;SDS011;40108;53.152;5.844;2023-02-08T04:56:13;36.03;;;22.65;;
54201;SDS011;40108;53.152;5.844;2023-02-08T04:59:00;33.95;;;22.88;;
54201;SDS011;40108;53.152;5.844;2023-02-08T05:01:51;37.63;;;23.63;;
54201;SDS011;40108;53.152;5.844;2023-02-08T05:04:29;35.43;;;22.43;;
54201;SDS011;40108;53.152;5.844;2023-02-08T05:09:44;38.03;;;22.63;;
54201;SDS011;40108;53.152;5.844;2023-02-08T05:12:28;37.73;;;23.03;;
54201;SDS011;40108;53.152;5.844;2023-02-08T05:17:50;36.87;;;23.87;;
54201;SDS011;40108;53.152;5.844;2023-02-08T05:20:30;35.28;;;21.52;;
54201;SDS011;40108;53.152;5.844;2023-02-08T05:23:26;36.80;;;22.93;;
54201;SDS011;40108;53.152;5.844;2023-02-08T05:25:57;34.70;;;22.20;;
54201;SDS011;40108;53.152;5.844;2023-02-08T05:28:29;33.38;;;21.52;;
54201;SDS011;40108;53.152;5.844;2023-02-08T05:31:16;38.03;;;24.15;;
54201;SDS011;40108;53.152;5.844;2023-02-08T05:34:10;34.67;;;22.57;;
54201;SDS011;40108;53.152;5.844;2023-02-08T05:40:45;34.30;;;22.33;;
54201;SDS011;40108;53.152;5.844;2023-02-08T05:50:04;39.57;;;24.30;;
54201;SDS011;40108;53.152;5.844;2023-02-08T05:52:36;36.73;;;23.63;;
54201;SDS011;40108;53.152;5.844;2023-02-08T05:55:14;36.63;;;23.55;;
54201;SDS011;40108;53.152;5.844;2023-02-08T05:57:53;39.37;;;24.93;;
54201;SDS011;40108;53.152;5.844;2023-02-08T06:00:23;45.13;;;25.37;;
54201;SDS011;40108;53.152;5.844;2023-02-08T06:02:59;54.67;;;26.73;;
54201;SDS011;40108;53.152;5.844;2023-02-08T06:05:45;51.50;;;27.83;;
54201;SDS011;40108;53.152;5.844;2023-02-08T06:08:21;57.27;;;28.70;;
54201;SDS011;40108;53.152;5.844;2023-02-08T06:11:09;45.27;;;24.40;;
54201;SDS011;40108;53.152;5.844;2023-02-08T06:13:41;40.80;;;25.20;;
54201;SDS011;40108;53.152;5.844;2023-02-08T06:16:17;39.10;;;24.43;;
54201;SDS011;40108;53.152;5.844;2023-02-08T06:18:54;39.75;;;23.92;;
54201;SDS011;40108;53.152;5.844;2023-02-08T06:21:25;38.33;;;22.50;;
54201;SDS011;40108;53.152;5.844;2023-02-08T06:24:08;38.97;;;23.70;;
54201;SDS011;40108;53.152;5.844;2023-02-08T06:29:34;41.60;;;25.47;;
54201;SDS011;40108;53.152;5.844;2023-02-08T06:47:37;45.33;;;27.13;;
54201;SDS011;40108;53.152;5.844;2023-02-08T06:50:03;37.83;;;25.05;;
54201;SDS011;40108;53.152;5.844;2023-02-08T06:52:52;43.55;;;27.42;;
54201;SDS011;40108;53.152;5.844;2023-02-08T06:55:56;40.13;;;26.35;;
54201;SDS011;40108;53.152;5.844;2023-02-08T06:58:33;39.53;;;26.67;;
54201;SDS011;40108;53.152;5.844;2023-02-08T07:01:02;42.38;;;27.15;;
54201;SDS011;40108;53.152;5.844;2023-02-08T07:03:33;42.27;;;26.73;;
54201;SDS011;40108;53.152;5.844;2023-02-08T07:06:04;40.83;;;25.37;;
54201;SDS011;40108;53.152;5.844;2023-02-08T07:08:43;36.23;;;25.20;;
54201;SDS011;40108;53.152;5.844;2023-02-08T07:11:10;39.50;;;24.93;;
54201;SDS011;40108;53.152;5.844;2023-02-08T07:13:47;42.85;;;25.30;;
54201;SDS011;40108;53.152;5.844;2023-02-08T07:16:17;38.72;;;24.65;;
54201;SDS011;40108;53.152;5.844;2023-02-08T07:18:53;37.87;;;25.43;;
54201;SDS011;40108;53.152;5.844;2023-02-08T07:21:34;39.07;;;24.63;;
54201;SDS011;40108;53.152;5.844;2023-02-08T07:24:11;38.05;;;24.77;;
54201;SDS011;40108;53.152;5.844;2023-02-08T07:26:44;39.90;;;24.30;;
54201;SDS011;40108;53.152;5.844;2023-02-08T07:29:18;39.72;;;23.90;;
54201;SDS011;40108;53.152;5.844;2023-02-08T07:32:04;34.15;;;23.13;;
54201;SDS011;40108;53.152;5.844;2023-02-08T07:34:42;38.03;;;24.13;;
54201;SDS011;40108;53.152;5.844;2023-02-08T07:37:13;40.10;;;26.10;;
54201;SDS011;40108;53.152;5.844;2023-02-08T07:39:54;41.83;;;25.87;;
54201;SDS011;40108;53.152;5.844;2023-02-08T07:42:24;41.67;;;26.27;;
54201;SDS011;40108;53.152;5.844;2023-02-08T07:45:12;37.43;;;24.83;;
54201;SDS011;40108;53.152;5.844;2023-02-08T07:50:36;35.17;;;21.40;;
54201;SDS011;40108;53.152;5.844;2023-02-08T07:53:12;38.07;;;24.53;;
54201;SDS011;40108;53.152;5.844;2023-02-08T07:56:02;39.03;;;24.07;;
54201;SDS011;40108;53.152;5.844;2023-02-08T07:58:33;37.90;;;24.13;;
54201;SDS011;40108;53.152;5.844;2023-02-08T08:01:07;39.50;;;25.53;;
54201;SDS011;40108;53.152;5.844;2023-02-08T08:03:55;40.67;;;25.65;;
54201;SDS011;40108;53.152;5.844;2023-02-08T08:09:04;38.40;;;23.30;;
54201;SDS011;40108;53.152;5.844;2023-02-08T08:11:39;37.13;;;22.27;;
54201;SDS011;40108;53.152;5.844;2023-02-08T08:14:10;38.10;;;24.80;;
54201;SDS011;40108;53.152;5.844;2023-02-08T08:16:39;36.28;;;23.40;;
54201;SDS011;40108;53.152;5.844;2023-02-08T08:19:10;36.33;;;23.73;;
54201;SDS011;40108;53.152;5.844;2023-02-08T08:21:36;37.58;;;24.00;;
54201;SDS011;40108;53.152;5.844;2023-02-08T08:24:05;39.78;;;22.35;;
54201;SDS011;40108;53.152;5.844;2023-02-08T08:35:05;36.95;;;23.27;;
54201;SDS011;40108;53.152;5.844;2023-02-08T08:37:37;38.40;;;23.40;;
54201;SDS011;40108;53.152;5.844;2023-02-08T08:40:09;36.20;;;23.63;;
54201;SDS011;40108;53.152;5.844;2023-02-08T08:42:35;35.97;;;23.42;;
54201;SDS011;40108;53.152;5.844;2023-02-08T08:45:13;36.67;;;22.83;;
54201;SDS011;40108;53.152;5.844;2023-02-08T08:47:42;34.58;;;22.23;;
54201;SDS011;40108;53.152;5.844;2023-02-08T08:50:31;36.47;;;24.80;;
54201;SDS011;40108;53.152;5.844;2023-02-08T08:53:07;35.50;;;21.98;;
54201;SDS011;40108;53.152;5.844;2023-02-08T08:55:38;35.95;;;23.58;;
54201;SDS011;40108;53.152;5.844;2023-02-08T08:58:17;30.17;;;20.70;;
54201;SDS011;40108;53.152;5.844;2023-02-08T09:01:03;33.38;;;21.92;;
54201;SDS011;40108;53.152;5.844;2023-02-08T09:03:44;31.02;;;21.23;;
54201;SDS011;40108;53.152;5.844;2023-02-08T09:06:12;30.60;;;20.90;;
54201;SDS011;40108;53.152;5.844;2023-02-08T09:08:55;27.05;;;18.70;;
54201;SDS011;40108;53.152;5.844;2023-02-08T09:11:33;29.20;;;18.90;;
54201;SDS011;40108;53.152;5.844;2023-02-08T09:14:04;29.48;;;19.40;;
54201;SDS011;40108;53.152;5.844;2023-02-08T09:16:55;26.27;;;17.92;;
54201;SDS011;40108;53.152;5.844;2023-02-08T09:19:32;29.33;;;17.58;;
54201;SDS011;40108;53.152;5.844;2023-02-08T09:22:23;25.13;;;16.83;;
54201;SDS011;40108;53.152;5.844;2023-02-08T09:25:04;23.67;;;16.30;;
54201;SDS011;40108;53.152;5.844;2023-02-08T09:27:32;24.73;;;16.40;;
54201;SDS011;40108;53.152;5.844;2023-02-08T09:29:59;22.48;;;16.02;;
54201;SDS011;40108;53.152;5.844;2023-02-08T09:32:32;23.92;;;16.63;;
54201;SDS011;40108;53.152;5.844;2023-02-08T09:35:09;23.55;;;16.63;;
54201;SDS011;40108;53.152;5.844;2023-02-08T09:37:43;23.55;;;17.05;;
54201;SDS011;40108;53.152;5.844;2023-02-08T09:40:21;23.23;;;16.40;;
54201;SDS011;40108;53.152;5.844;2023-02-08T09:48:54;20.77;;;14.95;;
54201;SDS011;40108;53.152;5.844;2023-02-08T09:51:31;21.80;;;15.52;;
54201;SDS011;40108;53.152;5.844;2023-02-08T09:56:54;21.45;;;15.27;;
54201;SDS011;40108;53.152;5.844;2023-02-08T09:59:39;19.05;;;14.07;;
54201;SDS011;40108;53.152;5.844;2023-02-08T10:02:17;21.10;;;15.05;;
54201;SDS011;40108;53.152;5.844;2023-02-08T10:05:02;21.13;;;14.52;;
54201;SDS011;40108;53.152;5.844;2023-02-08T10:16:24;25.23;;;15.13;;
54201;SDS011;40108;53.152;5.844;2023-02-08T10:19:13;20.90;;;13.52;;
54201;SDS011;40108;53.152;5.844;2023-02-08T10:25:43;16.80;;;12.43;;
54201;SDS011;40108;53.152;5.844;2023-02-08T10:35:02;14.30;;;9.65;;
54201;SDS011;40108;53.152;5.844;2023-02-08T11:11:20;22.33;;;12.57;;
54201;SDS011;40108;53.152;5.844;2023-02-08T11:19:20;20.02;;;11.55;;
54201;SDS011;40108;53.152;5.844;2023-02-08T11:22:26;20.23;;;12.15;;
54201;SDS011;40108;53.152;5.844;2023-02-08T11:34:37;25.27;;;14.10;;
54201;SDS011;40108;53.152;5.844;2023-02-08T11:53:38;21.07;;;10.97;;
54201;SDS011;40108;53.152;5.844;2023-02-08T11:56:15;21.50;;;13.15;;
54201;SDS011;40108;53.152;5.844;2023-02-08T11:58:41;23.98;;;13.50;;
54201;SDS011;40108;53.152;5.844;2023-02-08T12:01:19;22.50;;;11.93;;
54201;SDS011;40108;53.152;5.844;2023-02-08T12:04:01;20.50;;;12.70;;
54201;SDS011;40108;53.152;5.844;2023-02-08T12:09:45;17.30;;;10.98;;
54201;SDS011;40108;53.152;5.844;2023-02-08T12:12:30;18.73;;;11.55;;
54201;SDS011;40108;53.152;5.844;2023-02-08T12:15:06;17.25;;;10.27;;
54201;SDS011;40108;53.152;5.844;2023-02-08T12:18:16;16.25;;;11.05;;
54201;SDS011;40108;53.152;5.844;2023-02-08T12:21:13;19.15;;;11.32;;
54201;SDS011;40108;53.152;5.844;2023-02-08T12:23:47;17.83;;;9.77;;
54201;SDS011;40108;53.152;5.844;2023-02-08T12:40:29;17.17;;;10.82;;
54201;SDS011;40108;53.152;5.844;2023-02-08T12:51:50;19.35;;;10.60;;
54201;SDS011;40108;53.152;5.844;2023-02-08T13:00:14;15.57;;;9.90;;
54201;SDS011;40108;53.152;5.844;2023-02-08T13:09:05;19.95;;;11.02;;
54201;SDS011;40108;53.152;5.844;2023-02-08T13:17:22;16.15;;;10.00;;
54201;SDS011;40108;53.152;5.844;2023-02-08T13:28:55;13.77;;;8.55;;
54201;SDS011;40108;53.152;5.844;2023-02-08T13:31:43;13.32;;;9.43;;
54201;SDS011;40108;53.152;5.844;2023-02-08T13:40:04;11.77;;;7.80;;
54201;SDS011;40108;53.152;5.844;2023-02-08T13:43:15;9.93;;;6.68;;
54201;SDS011;40108;53.152;5.844;2023-02-08T13:45:50;11.93;;;8.30;;
54201;SDS011;40108;53.152;5.844;2023-02-08T13:48:27;11.27;;;7.65;;
54201;SDS011;40108;53.152;5.844;2023-02-08T13:54:12;11.13;;;6.93;;
54201;SDS011;40108;53.152;5.844;2023-02-08T14:00:35;10.32;;;7.10;;
54201;SDS011;40108;53.152;5.844;2023-02-08T14:03:34;10.73;;;7.20;;
54201;SDS011;40108;53.152;5.844;2023-02-08T14:06:22;11.10;;;7.85;;
54201;SDS011;40108;53.152;5.844;2023-02-08T14:12:18;11.23;;;7.05;;
54201;SDS011;40108;53.152;5.844;2023-02-08T14:17:46;10.38;;;6.82;;
54201;SDS011;40108;53.152;5.844;2023-02-08T14:20:25;12.25;;;7.90;;
54201;SDS011;40108;53.152;5.844;2023-02-08T14:26:03;12.13;;;8.05;;
54201;SDS011;40108;53.152;5.844;2023-02-08T14:29:05;9.60;;;6.65;;
54201;SDS011;40108;53.152;5.844;2023-02-08T14:31:37;10.20;;;6.40;;
54201;SDS011;40108;53.152;5.844;2023-02-08T14:37:30;8.35;;;6.20;;
54201;SDS011;40108;53.152;5.844;2023-02-08T14:47:54;12.82;;;7.57;;
54201;SDS011;40108;53.152;5.844;2023-02-08T14:54:01;11.05;;;6.70;;
54201;SDS011;40108;53.152;5.844;2023-02-08T14:56:56;11.20;;;7.68;;
54201;SDS011;40108;53.152;5.844;2023-02-08T14:59:29;12.05;;;7.25;;
54201;SDS011;40108;53.152;5.844;2023-02-08T15:02:07;12.38;;;6.30;;
54201;SDS011;40108;53.152;5.844;2023-02-08T15:07:42;13.48;;;7.75;;
54201;SDS011;40108;53.152;5.844;2023-02-08T15:10:21;12.02;;;7.55;;
54201;SDS011;40108;53.152;5.844;2023-02-08T15:13:05;11.75;;;7.20;;
54201;SDS011;40108;53.152;5.844;2023-02-08T15:15:44;11.30;;;7.35;;
54201;SDS011;40108;53.152;5.844;2023-02-08T15:18:17;10.60;;;7.15;;
54201;SDS011;40108;53.152;5.844;2023-02-08T15:21:00;10.35;;;7.10;;
54201;SDS011;40108;53.152;5.844;2023-02-08T15:23:28;12.98;;;7.18;;
54201;SDS011;40108;53.152;5.844;2023-02-08T15:28:26;10.85;;;7.57;;
54201;SDS011;40108;53.152;5.844;2023-02-08T15:31:06;11.50;;;7.07;;
54201;SDS011;40108;53.152;5.844;2023-02-08T15:33:35;10.02;;;6.18;;
54201;SDS011;40108;53.152;5.844;2023-02-08T15:36:07;12.10;;;6.88;;
54201;SDS011;40108;53.152;5.844;2023-02-08T15:38:54;10.18;;;6.72;;
54201;SDS011;40108;53.152;5.844;2023-02-08T15:41:25;9.50;;;6.45;;
54201;SDS011;40108;53.152;5.844;2023-02-08T15:44:26;10.75;;;6.13;;
54201;SDS011;40108;53.152;5.844;2023-02-08T15:46:47;10.70;;;6.78;;
54201;SDS011;40108;53.152;5.844;2023-02-08T15:49:49;9.45;;;6.63;;
54201;SDS011;40108;53.152;5.844;2023-02-08T15:52:13;9.10;;;6.30;;
54201;SDS011;40108;53.152;5.844;2023-02-08T15:54:45;9.10;;;6.55;;
54201;SDS011;40108;53.152;5.844;2023-02-08T15:59:59;9.82;;;6.00;;
54201;SDS011;40108;53.152;5.844;2023-02-08T16:02:31;9.65;;;6.18;;
54201;SDS011;40108;53.152;5.844;2023-02-08T16:04:59;9.60;;;5.47;;
54201;SDS011;40108;53.152;5.844;2023-02-08T16:07:30;12.00;;;5.88;;
54201;SDS011;40108;53.152;5.844;2023-02-08T16:10:02;8.05;;;5.70;;
54201;SDS011;40108;53.152;5.844;2023-02-08T16:12:29;9.27;;;5.50;;
54201;SDS011;40108;53.152;5.844;2023-02-08T16:14:56;9.10;;;5.90;;
54201;SDS011;40108;53.152;5.844;2023-02-08T16:17:35;10.85;;;5.53;;
54201;SDS011;40108;53.152;5.844;2023-02-08T16:22:55;8.60;;;5.47;;
54201;SDS011;40108;53.152;5.844;2023-02-08T16:25:45;7.45;;;5.18;;
54201;SDS011;40108;53.152;5.844;2023-02-08T16:28:25;9.93;;;5.85;;
54201;SDS011;40108;53.152;5.844;2023-02-08T16:30:55;9.63;;;6.05;;
54201;SDS011;40108;53.152;5.844;2023-02-08T16:33:23;8.20;;;5.72;;
54201;SDS011;40108;53.152;5.844;2023-02-08T16:36:02;7.85;;;5.50;;
54201;SDS011;40108;53.152;5.844;2023-02-08T16:38:29;8.40;;;5.43;;
54201;SDS011;40108;53.152;5.844;2023-02-08T16:40:56;8.48;;;5.32;;
54201;SDS011;40108;53.152;5.844;2023-02-08T16:43:37;7.53;;;5.47;;
54201;SDS011;40108;53.152;5.844;2023-02-08T16:48:42;7.93;;;5.10;;
54201;SDS011;40108;53.152;5.844;2023-02-08T16:53:49;10.70;;;5.50;;
54201;SDS011;40108;53.152;5.844;2023-02-08T16:56:19;8.98;;;5.68;;
54201;SDS011;40108;53.152;5.844;2023-02-08T16:58:45;7.97;;;5.07;;
54201;SDS011;40108;53.152;5.844;2023-02-08T17:01:12;9.68;;;5.22;;
54201;SDS011;40108;53.152;5.844;2023-02-08T17:03:38;10.10;;;5.68;;
54201;SDS011;40108;53.152;5.844;2023-02-08T17:06:05;9.88;;;5.15;;
54201;SDS011;40108;53.152;5.844;2023-02-08T17:08:31;7.40;;;5.25;;
54201;SDS011;40108;53.152;5.844;2023-02-08T17:11:00;11.20;;;7.07;;
54201;SDS011;40108;53.152;5.844;2023-02-08T17:13:26;7.85;;;6.43;;
54201;SDS011;40108;53.152;5.844;2023-02-08T17:15:56;9.05;;;5.47;;
54201;SDS011;40108;53.152;5.844;2023-02-08T17:18:25;9.38;;;5.50;;
54201;SDS011;40108;53.152;5.844;2023-02-08T17:20:56;8.48;;;5.05;;
54201;SDS011;40108;53.152;5.844;2023-02-08T17:23:26;8.07;;;5.10;;
54201;SDS011;40108;53.152;5.844;2023-02-08T17:25:52;7.97;;;4.60;;
54201;SDS011;40108;53.152;5.844;2023-02-08T17:28:18;9.95;;;5.55;;
54201;SDS011;40108;53.152;5.844;2023-02-08T17:30:45;9.50;;;5.13;;
54201;SDS011;40108;53.152;5.844;2023-02-08T17:33:14;7.43;;;4.68;;
54201;SDS011;40108;53.152;5.844;2023-02-08T17:42:12;10.27;;;6.53;;
54201;SDS011;40108;53.152;5.844;2023-02-08T17:44:42;13.73;;;7.93;;
54201;SDS011;40108;53.152;5.844;2023-02-08T17:47:15;10.65;;;6.50;;
54201;SDS011;40108;53.152;5.844;2023-02-08T17:49:43;8.73;;;5.22;;
54201;SDS011;40108;53.152;5.844;2023-02-08T17:52:24;7.95;;;5.03;;
54201;SDS011;40108;53.152;5.844;2023-02-08T17:55:01;8.57;;;5.10;;
54201;SDS011;40108;53.152;5.844;2023-02-08T17:57:39;7.75;;;5.15;;
54201;SDS011;40108;53.152;5.844;2023-02-08T18:00:11;8.80;;;5.32;;
54201;SDS011;40108;53.152;5.844;2023-02-08T18:08:48;7.47;;;4.80;;
54201;SDS011;40108;53.152;5.844;2023-02-08T18:32:17;10.48;;;5.07;;
54201;SDS011;40108;53.152;5.844;2023-02-08T18:34:46;7.32;;;4.70;;
54201;SDS011;40108;53.152;5.844;2023-02-08T18:37:14;7.15;;;4.63;;
54201;SDS011;40108;53.152;5.844;2023-02-08T18:39:58;11.73;;;5.15;;
54201;SDS011;40108;53.152;5.844;2023-02-08T18:42:39;8.20;;;4.75;;
54201;SDS011;40108;53.152;5.844;2023-02-08T18:45:05;10.57;;;4.90;;
54201;SDS011;40108;53.152;5.844;2023-02-08T18:47:38;9.30;;;5.30;;
54201;SDS011;40108;53.152;5.844;2023-02-08T18:50:14;10.60;;;5.50;;
54201;SDS011;40108;53.152;5.844;2023-02-08T18:52:40;12.38;;;6.22;;
54201;SDS011;40108;53.152;5.844;2023-02-08T18:55:06;8.98;;;5.10;;
54201;SDS011;40108;53.152;5.844;2023-02-08T18:57:32;10.38;;;5.63;;
54201;SDS011;40108;53.152;5.844;2023-02-08T19:00:03;10.18;;;5.50;;
54201;SDS011;40108;53.152;5.844;2023-02-08T19:02:31;9.38;;;5.75;;
54201;SDS011;40108;53.152;5.844;2023-02-08T19:04:57;9.57;;;5.20;;
54201;SDS011;40108;53.152;5.844;2023-02-08T19:07:23;9.07;;;5.40;;
54201;SDS011;40108;53.152;5.844;2023-02-08T19:09:56;9.25;;;5.05;;
54201;SDS011;40108;53.152;5.844;2023-02-08T19:12:22;8.50;;;4.28;;
54201;SDS011;40108;53.152;5.844;2023-02-08T19:14:51;8.20;;;4.70;;
54201;SDS011;40108;53.152;5.844;2023-02-08T19:17:17;9.32;;;5.07;;
54201;SDS011;40108;53.152;5.844;2023-02-08T19:19:45;7.40;;;4.75;;
54201;SDS011;40108;53.152;5.844;2023-02-08T19:22:24;6.88;;;4.72;;
54201;SDS011;40108;53.152;5.844;2023-02-08T19:42:44;8.00;;;5.20;;
54201;SDS011;40108;53.152;5.844;2023-02-08T19:45:33;8.93;;;5.65;;
54201;SDS011;40108;53.152;5.844;2023-02-08T19:48:13;10.25;;;5.45;;
54201;SDS011;40108;53.152;5.844;2023-02-08T19:51:02;13.73;;;6.28;;
54201;SDS011;40108;53.152;5.844;2023-02-08T19:53:33;10.63;;;5.95;;
54201;SDS011;40108;53.152;5.844;2023-02-08T19:56:03;10.65;;;6.63;;
54201;SDS011;40108;53.152;5.844;2023-02-08T19:58:40;12.77;;;6.85;;
54201;SDS011;40108;53.152;5.844;2023-02-08T20:01:16;15.02;;;7.03;;
54201;SDS011;40108;53.152;5.844;2023-02-08T20:03:58;12.50;;;7.28;;
54201;SDS011;40108;53.152;5.844;2023-02-08T20:06:31;11.15;;;6.43;;
54201;SDS011;40108;53.152;5.844;2023-02-08T20:09:09;12.85;;;6.15;;
54201;SDS011;40108;53.152;5.844;2023-02-08T20:11:38;9.95;;;6.03;;
54201;SDS011;40108;53.152;5.844;2023-02-08T20:14:05;11.98;;;5.97;;
54201;SDS011;40108;53.152;5.844;2023-02-08T20:16:37;10.00;;;5.93;;
54201;SDS011;40108;53.152;5.844;2023-02-08T20:19:33;13.68;;;6.70;;
54201;SDS011;40108;53.152;5.844;2023-02-08T20:22:00;11.40;;;6.45;;
54201;SDS011;40108;53.152;5.844;2023-02-08T20:24:29;10.27;;;6.35;;
54201;SDS011;40108;53.152;5.844;2023-02-08T20:26:57;12.90;;;7.00;;
54201;SDS011;40108;53.152;5.844;2023-02-08T20:29:25;10.52;;;5.70;;
54201;SDS011;40108;53.152;5.844;2023-02-08T20:32:00;13.40;;;6.22;;
54201;SDS011;40108;53.152;5.844;2023-02-08T20:34:35;13.45;;;6.78;;
54201;SDS011;40108;53.152;5.844;2023-02-08T20:37:03;9.50;;;6.18;;
54201;SDS011;40108;53.152;5.844;2023-02-08T20:39:49;9.75;;;6.63;;
54201;SDS011;40108;53.152;5.844;2023-02-08T20:42:28;14.73;;;7.18;;
54201;SDS011;40108;53.152;5.844;2023-02-08T20:44:56;11.73;;;7.00;;
54201;SDS011;40108;53.152;5.844;2023-02-08T20:47:27;10.82;;;7.15;;
54201;SDS011;40108;53.152;5.844;2023-02-08T20:49:53;15.43;;;8.20;;
54201;SDS011;40108;53.152;5.844;2023-02-08T20:52:22;12.10;;;7.85;;
54201;SDS011;40108;53.152;5.844;2023-02-08T20:55:00;12.00;;;8.02;;
54201;SDS011;40108;53.152;5.844;2023-02-08T20:57:29;12.10;;;7.75;;
54201;SDS011;40108;53.152;5.844;2023-02-08T20:59:58;11.18;;;7.57;;
54201;SDS011;40108;53.152;5.844;2023-02-08T21:08:07;12.98;;;7.93;;
54201;SDS011;40108;53.152;5.844;2023-02-08T21:10:41;11.77;;;7.70;;
54201;SDS011;40108;53.152;5.844;2023-02-08T21:13:22;12.95;;;7.65;;
54201;SDS011;40108;53.152;5.844;2023-02-08T21:16:09;14.63;;;8.32;;
54201;SDS011;40108;53.152;5.844;2023-02-08T21:18:46;13.27;;;7.68;;
54201;SDS011;40108;53.152;5.844;2023-02-08T21:21:15;13.93;;;7.38;;
54201;SDS011;40108;53.152;5.844;2023-02-08T21:23:42;12.35;;;6.90;;
54201;SDS011;40108;53.152;5.844;2023-02-08T21:26:12;14.73;;;8.55;;
54201;SDS011;40108;53.152;5.844;2023-02-08T21:28:39;15.45;;;8.27;;
54201;SDS011;40108;53.152;5.844;2023-02-08T21:31:09;12.13;;;7.57;;
54201;SDS011;40108;53.152;5.844;2023-02-08T21:33:45;13.05;;;7.95;;
54201;SDS011;40108;53.152;5.844;2023-02-08T21:36:16;15.27;;;7.95;;
54201;SDS011;40108;53.152;5.844;2023-02-08T21:38:49;11.48;;;8.10;;